Seascout — 9HSM7 — position and weather

sailwx.info

Track history (hours):
 
Tides and Currents Weather Stations Pressure Air Temp Water Temp Dewpoint Dewpoint Depression Visibility Wind Speed Wind Dir Waves Ship Positions

Seascout

Last reported at 2017-Oct-22 10:00 UTC. Time now 2017-Oct-22 10:29 UTC.
Position N 36°11' E 014°53'.

Length 243 m; draft 8.2 m.

Type: Tanker. MMSI: 215535000.

Date/timePositionNaut miles runAvg speedWind from/ knotsBaromVisibWave heightAir tempDewpointWater temp
2017-Oct-22 10:00N 36°11' E 014°53'1 1.4
2017-Oct-22 09:30N 36°11' E 014°52'1 1.3
2017-Oct-22 08:59N 36°11' E 014°51'1 1.2
2017-Oct-22 08:30N 36°11' E 014°50'1 1.1
2017-Oct-22 08:00N 36°11' E 014°50'1 1.1
2017-Oct-22 07:30N 36°11' E 014°49'1 1.1
2017-Oct-22 07:00N 36°11' E 014°48'0 0.9
2017-Oct-22 06:30N 36°11' E 014°48'2 4.2
2017-Oct-22 06:00N 36°09' E 014°47'4 8.1
2017-Oct-22 05:30N 36°06' E 014°43'1 2.4
2017-Oct-22 04:56N 36°07' E 014°42'0 0.6
2017-Oct-22 04:29N 36°07' E 014°42'0 0.5
2017-Oct-22 03:59N 36°06' E 014°42'2 0.6
2017-Oct-22 01:23N 36°06' E 014°40'1 1.3
2017-Oct-22 00:59N 36°06' E 014°39'1 2.7
2017-Oct-22 00:30N 36°07' E 014°38'1 2.6
2017-Oct-22 00:00N 36°07' E 014°36'1 1.5
2017-Oct-21 23:30N 36°08' E 014°36'0 0.5
2017-Oct-21 23:00N 36°08' E 014°36'0 0.2
2017-Oct-21 22:30N 36°08' E 014°36'0 0.2
2017-Oct-21 21:57N 36°08' E 014°36'0 0.1
2017-Oct-21 21:30N 36°08' E 014°36'0 0.2
2017-Oct-21 21:00N 36°08' E 014°36'0 0.2
2017-Oct-21 20:24N 36°08' E 014°36'0 0.2
2017-Oct-21 20:00N 36°08' E 014°36'0 0.2
2017-Oct-21 19:30N 36°08' E 014°37'0 0.2
2017-Oct-21 19:00N 36°08' E 014°37'0 0.2
2017-Oct-21 18:30N 36°08' E 014°37'0 0.2
2017-Oct-21 17:57N 36°08' E 014°37'0 0.2
2017-Oct-21 17:30N 36°08' E 014°37'0 0.2
2017-Oct-21 17:00N 36°08' E 014°37'0 0.2
2017-Oct-21 16:30N 36°08' E 014°37'0 0.3
2017-Oct-21 16:00N 36°08' E 014°37'0 0.3
2017-Oct-21 15:27N 36°08' E 014°38'0 0.3
2017-Oct-21 15:00N 36°08' E 014°38'0 0.4
2017-Oct-21 14:00N 36°07' E 014°38'0 0.3
2017-Oct-21 13:30N 36°07' E 014°38'0 0.4
2017-Oct-21 12:48N 36°07' E 014°38'0 0.5
2017-Oct-21 12:24N 36°07' E 014°38'0 0.5
2017-Oct-21 12:00N 36°07' E 014°38'0 0.5
2017-Oct-21 11:24N 36°07' E 014°39'0 0.5
2017-Oct-21 10:42N 36°06' E 014°39'0 0.5
2017-Oct-21 10:30N 36°06' E 014°39'0 0.5
2017-Oct-21 09:57N 36°06' E 014°39'0 0.6
2017-Oct-21 09:30N 36°06' E 014°39'0 0.6
2017-Oct-21 08:54N 36°06' E 014°40'0 0.6
2017-Oct-21 08:30N 36°05' E 014°40'0 0.5
2017-Oct-21 07:48N 36°05' E 014°40'0 0.5
2017-Oct-21 07:30N 36°05' E 014°40'0 0.5
2017-Oct-21 07:00N 36°05' E 014°41'2 0.9
2017-Oct-21 05:05N 36°06' E 014°42'2 3.9
2017-Oct-21 04:42N 36°07' E 014°44'1 0.3
2017-Oct-21 01:03N 36°08' E 014°44'0 0.4
2017-Oct-21 00:45N 36°08' E 014°44'1 0.3
2017-Oct-20 22:15N 36°07' E 014°44'1 0.3
2017-Oct-20 20:27N 36°06' E 014°45'0 0.0
2017-Oct-20 19:30N 36°06' E 014°45'1 0.9
2017-Oct-20 18:06N 36°05' E 014°45'1 3.6
2017-Oct-20 17:58N 36°04' E 014°45'3 4.6
2017-Oct-20 17:23N 36°02' E 014°44'2 4.1
2017-Oct-20 17:00N 36°00' E 014°44'2 4.9
2017-Oct-20 16:30N 35°59' E 014°47'3 5.2
2017-Oct-20 16:00N 35°57' E 014°49'1 0.1
2017-Oct-20 11:09N 35°58' E 014°49'0 0.1
2017-Oct-20 11:00N 35°58' E 014°49'0 0.1
2017-Oct-20 10:24N 35°58' E 014°49'0 0.1
2017-Oct-20 10:00N 35°58' E 014°49'0 0.9
2017-Oct-20 09:29N 35°58' E 014°49'2 4.1
2017-Oct-20 09:00N 35°60' E 014°47'2 4.6
2017-Oct-20 08:30N 36°01' E 014°46'2 4.7
2017-Oct-20 08:00N 36°03' E 014°44'3 4.9
2017-Oct-20 07:29N 36°06' E 014°43'2 3.4
2017-Oct-20 07:00N 36°07' E 014°41'2 3.4
2017-Oct-20 06:30N 36°06' E 014°43'2 4.7
2017-Oct-20 06:00N 36°04' E 014°45'2 4.6
2017-Oct-20 05:30N 36°02' E 014°46'2 4.7
2017-Oct-20 05:00N 36°01' E 014°49'2 3.2
2017-Oct-20 04:30N 36°01' E 014°51'1 1.0
2017-Oct-20 03:51N 36°01' E 014°50'0 0.1
2017-Oct-20 03:30N 36°01' E 014°50'1 0.1
2017-Oct-19 20:14N 36°02' E 014°49'0 0.2
2017-Oct-19 20:00N 36°02' E 014°49'0 0.2
2017-Oct-19 19:26N 36°02' E 014°49'0 0.2
2017-Oct-19 18:32N 36°02' E 014°49'0 0.2
2017-Oct-19 18:28N 36°02' E 014°49'0 0.2
2017-Oct-19 17:54N 36°02' E 014°49'2 3.7
2017-Oct-19 17:21N 36°03' E 014°47'410.8
2017-Oct-19 17:00N 36°04' E 014°42'612.7
2017-Oct-19 16:30N 36°07' E 014°35'612.8
2017-Oct-19 16:00N 36°09' E 014°28'612.9
2017-Oct-19 15:30N 36°11' E 014°20'612.7
2017-Oct-19 15:00N 36°14' E 014°13'612.8
2017-Oct-19 14:30N 36°17' E 014°06'612.8
2017-Oct-19 14:00N 36°19' E 013°59'612.8
2017-Oct-19 13:30N 36°22' E 013°52'612.8
2017-Oct-19 13:00N 36°24' E 013°44'612.6
2017-Oct-19 12:30N 36°27' E 013°37'28712.4
2017-Oct-18 13:23N 37°34' E 007°48'11912.3
2017-Oct-18 03:41N 37°27' E 005°18'212.2
2017-Oct-18 03:30N 37°27' E 005°15'712.2
2017-Oct-18 02:54N 37°26' E 005°06'612.2
2017-Oct-18 02:26N 37°26' E 004°59'512.3
2017-Oct-18 02:00N 37°25' E 004°52'612.2
2017-Oct-18 01:30N 37°25' E 004°45'612.2
2017-Oct-18 01:00N 37°24' E 004°37'612.2
2017-Oct-18 00:30N 37°24' E 004°29'612.4
2017-Oct-18 00:00N 37°23' E 004°22'612.5
2017-Oct-17 23:30N 37°23' E 004°14'5112.3
2017-Oct-17 19:23N 37°18' E 003°10'40912.5
2017-Oct-16 10:31N 36°03' W 005°11'112.7
2017-Oct-16 10:26N 36°03' W 005°12'4 9.0
2017-Oct-16 10:00N 36°02' W 005°17'4 8.0
2017-Oct-16 09:30N 35°59' W 005°21'612.0
2017-Oct-16 09:00N 35°58' W 005°28'9911.0
2017-Oct-15 23:59N 36°08' W 007°30'811.6
2017-Oct-15 23:19N 36°10' W 007°40'411.8
2017-Oct-15 23:00N 36°11' W 007°44'611.5
2017-Oct-15 22:30N 36°12' W 007°51'611.7
2017-Oct-15 21:59N 36°14' W 007°58'612.0
2017-Oct-15 21:30N 36°15' W 008°05'612.0
2017-Oct-15 21:00N 36°17' W 008°13'1611.9
2017-Oct-15 19:40N 36°21' W 008°32'211.6
2017-Oct-15 19:30N 36°21' W 008°34'712.0
2017-Oct-15 18:56N 36°23' W 008°42'512.2
2017-Oct-15 18:30N 36°24' W 008°49'612.6
2017-Oct-15 18:00N 36°25' W 008°56'612.8
2017-Oct-15 17:30N 36°27' W 009°04'612.4
2017-Oct-15 17:00N 36°28' W 009°11'612.3
2017-Oct-15 16:30N 36°30' W 009°19'611.8
2017-Oct-15 16:00N 36°34' W 009°24'612.2
2017-Oct-15 15:30N 36°38' W 009°30'611.8
2017-Oct-15 15:00N 36°42' W 009°35'1211.7
2017-Oct-15 14:00N 36°53' W 009°40'611.7
2017-Oct-15 13:30N 36°59' W 009°42'611.4
2017-Oct-15 13:00N 37°04' W 009°43'611.1
2017-Oct-15 12:30N 37°10' W 009°45'511.2
2017-Oct-15 12:00N 37°15' W 009°46'611.2
2017-Oct-15 11:30N 37°21' W 009°48'511.0
2017-Oct-15 11:00N 37°26' W 009°50'611.3
2017-Oct-15 10:30N 37°32' W 009°51'811.4
2017-Oct-15 09:50N 37°39' W 009°54'411.6
2017-Oct-15 09:27N 37°43' W 009°55'611.8
2017-Oct-15 08:59N 37°49' W 009°56'612.1
2017-Oct-15 08:30N 37°54' W 009°58'612.5
2017-Oct-15 08:00N 38°01' W 009°60'612.2
2017-Oct-15 07:30N 38°07' W 010°01'612.0
2017-Oct-15 07:00N 38°12' W 010°03'612.0
2017-Oct-15 06:30N 38°18' W 010°05'612.0
2017-Oct-15 06:00N 38°24' W 010°06'612.6
2017-Oct-15 05:30N 38°30' W 010°08'612.4
2017-Oct-15 05:00N 38°36' W 010°10'612.1
2017-Oct-15 04:30N 38°42' W 010°11'611.7
2017-Oct-15 04:00N 38°48' W 010°11'612.0
2017-Oct-15 03:30N 38°54' W 010°12'612.8
2017-Oct-15 03:00N 39°00' W 010°12'612.6
2017-Oct-15 02:30N 39°07' W 010°12'612.4
2017-Oct-15 02:00N 39°13' W 010°12'612.2
2017-Oct-15 01:30N 39°19' W 010°12'611.9
2017-Oct-15 01:01N 39°25' W 010°12'612.0
2017-Oct-15 00:30N 39°31' W 010°12'612.1
2017-Oct-15 00:00N 39°37' W 010°12'612.1
2017-Oct-14 23:30N 39°43' W 010°12'612.3
2017-Oct-14 23:01N 39°49' W 010°12'57411.9
2017-Oct-12 22:36N 48°52' W 005°49'311.2
2017-Oct-12 22:23N 48°54' W 005°47'510.6
2017-Oct-12 21:53N 48°57' W 005°40'1710.8
2017-Oct-12 20:21N 49°05' W 005°18'510.9
2017-Oct-12 19:52N 49°08' W 005°11'410.5
2017-Oct-12 19:30N 49°10' W 005°06'510.1
2017-Oct-12 19:00N 49°12' W 004°59'6 9.8
2017-Oct-12 18:25N 49°15' W 004°52'3 8.3
2017-Oct-12 18:00N 49°17' W 004°47'510.4
2017-Oct-12 17:29N 49°20' W 004°40'612.0
2017-Oct-12 17:00N 49°23' W 004°33'612.2
2017-Oct-12 16:29N 49°26' W 004°24'612.0
2017-Oct-12 16:00N 49°29' W 004°17'611.6
2017-Oct-12 15:30N 49°32' W 004°09'611.6
2017-Oct-12 14:59N 49°35' W 004°01'611.5
2017-Oct-12 14:30N 49°38' W 003°54'611.1
2017-Oct-12 13:58N 49°41' W 003°46'610.9
2017-Oct-12 13:24N 49°44' W 003°38'410.4
2017-Oct-12 13:00N 49°46' W 003°32'510.1
2017-Oct-12 12:30N 49°48' W 003°25'5 9.9
2017-Oct-12 12:00N 49°51' W 003°18'5 9.8
2017-Oct-12 11:30N 49°53' W 003°12'5 9.8
2017-Oct-12 11:00N 49°55' W 003°05'5 9.9
2017-Oct-12 10:30N 49°58' W 002°58'5 9.9
2017-Oct-12 10:00N 49°60' W 002°51'  
Track history (hours):
 
Tides and Currents Weather Stations Pressure Air Temp Water Temp Dewpoint Dewpoint Depression Visibility Wind Speed Wind Dir Waves Ship Positions

Seascout

Last reported at 2017-Oct-22 10:00 UTC. Time now 2017-Oct-22 10:29 UTC.
Position N 36°11' E 014°53'.

Length 243 m; draft 8.2 m.

Type: Tanker. MMSI: 215535000.

Date/timePositionNaut miles runAvg speedWind from/ knotsBaromVisibWave heightAir tempDewpointWater temp
2017-Oct-22 10:00N 36°11' E 014°53'1 1.4
2017-Oct-22 09:30N 36°11' E 014°52'1 1.3
2017-Oct-22 08:59N 36°11' E 014°51'1 1.2
2017-Oct-22 08:30N 36°11' E 014°50'1 1.1
2017-Oct-22 08:00N 36°11' E 014°50'1 1.1
2017-Oct-22 07:30N 36°11' E 014°49'1 1.1
2017-Oct-22 07:00N 36°11' E 014°48'0 0.9
2017-Oct-22 06:30N 36°11' E 014°48'2 4.2
2017-Oct-22 06:00N 36°09' E 014°47'4 8.1
2017-Oct-22 05:30N 36°06' E 014°43'1 2.4
2017-Oct-22 04:56N 36°07' E 014°42'0 0.6
2017-Oct-22 04:29N 36°07' E 014°42'0 0.5
2017-Oct-22 03:59N 36°06' E 014°42'2 0.6
2017-Oct-22 01:23N 36°06' E 014°40'1 1.3
2017-Oct-22 00:59N 36°06' E 014°39'1 2.7
2017-Oct-22 00:30N 36°07' E 014°38'1 2.6
2017-Oct-22 00:00N 36°07' E 014°36'1 1.5
2017-Oct-21 23:30N 36°08' E 014°36'0 0.5
2017-Oct-21 23:00N 36°08' E 014°36'0 0.2
2017-Oct-21 22:30N 36°08' E 014°36'0 0.2
2017-Oct-21 21:57N 36°08' E 014°36'0 0.1
2017-Oct-21 21:30N 36°08' E 014°36'0 0.2
2017-Oct-21 21:00N 36°08' E 014°36'0 0.2
2017-Oct-21 20:24N 36°08' E 014°36'0 0.2
2017-Oct-21 20:00N 36°08' E 014°36'0 0.2
2017-Oct-21 19:30N 36°08' E 014°37'0 0.2
2017-Oct-21 19:00N 36°08' E 014°37'0 0.2
2017-Oct-21 18:30N 36°08' E 014°37'0 0.2
2017-Oct-21 17:57N 36°08' E 014°37'0 0.2
2017-Oct-21 17:30N 36°08' E 014°37'0 0.2
2017-Oct-21 17:00N 36°08' E 014°37'0 0.2
2017-Oct-21 16:30N 36°08' E 014°37'0 0.3
2017-Oct-21 16:00N 36°08' E 014°37'0 0.3
2017-Oct-21 15:27N 36°08' E 014°38'0 0.3
2017-Oct-21 15:00N 36°08' E 014°38'0 0.4
2017-Oct-21 14:00N 36°07' E 014°38'0 0.3
2017-Oct-21 13:30N 36°07' E 014°38'0 0.4
2017-Oct-21 12:48N 36°07' E 014°38'0 0.5
2017-Oct-21 12:24N 36°07' E 014°38'0 0.5
2017-Oct-21 12:00N 36°07' E 014°38'0 0.5
2017-Oct-21 11:24N 36°07' E 014°39'0 0.5
2017-Oct-21 10:42N 36°06' E 014°39'0 0.5
2017-Oct-21 10:30N 36°06' E 014°39'0 0.5
2017-Oct-21 09:57N 36°06' E 014°39'0 0.6
2017-Oct-21 09:30N 36°06' E 014°39'0 0.6
2017-Oct-21 08:54N 36°06' E 014°40'0 0.6
2017-Oct-21 08:30N 36°05' E 014°40'0 0.5
2017-Oct-21 07:48N 36°05' E 014°40'0 0.5
2017-Oct-21 07:30N 36°05' E 014°40'0 0.5
2017-Oct-21 07:00N 36°05' E 014°41'2 0.9
2017-Oct-21 05:05N 36°06' E 014°42'2 3.9
2017-Oct-21 04:42N 36°07' E 014°44'1 0.3
2017-Oct-21 01:03N 36°08' E 014°44'0 0.4
2017-Oct-21 00:45N 36°08' E 014°44'1 0.3
2017-Oct-20 22:15N 36°07' E 014°44'1 0.3
2017-Oct-20 20:27N 36°06' E 014°45'0 0.0
2017-Oct-20 19:30N 36°06' E 014°45'1 0.9
2017-Oct-20 18:06N 36°05' E 014°45'1 3.6
2017-Oct-20 17:58N 36°04' E 014°45'3 4.6
2017-Oct-20 17:23N 36°02' E 014°44'2 4.1
2017-Oct-20 17:00N 36°00' E 014°44'2 4.9
2017-Oct-20 16:30N 35°59' E 014°47'3 5.2
2017-Oct-20 16:00N 35°57' E 014°49'1 0.1
2017-Oct-20 11:09N 35°58' E 014°49'0 0.1
2017-Oct-20 11:00N 35°58' E 014°49'0 0.1
2017-Oct-20 10:24N 35°58' E 014°49'0 0.1
2017-Oct-20 10:00N 35°58' E 014°49'0 0.9
2017-Oct-20 09:29N 35°58' E 014°49'2 4.1
2017-Oct-20 09:00N 35°60' E 014°47'2 4.6
2017-Oct-20 08:30N 36°01' E 014°46'2 4.7
2017-Oct-20 08:00N 36°03' E 014°44'3 4.9
2017-Oct-20 07:29N 36°06' E 014°43'2 3.4
2017-Oct-20 07:00N 36°07' E 014°41'2 3.4
2017-Oct-20 06:30N 36°06' E 014°43'2 4.7
2017-Oct-20 06:00N 36°04' E 014°45'2 4.6
2017-Oct-20 05:30N 36°02' E 014°46'2 4.7
2017-Oct-20 05:00N 36°01' E 014°49'2 3.2
2017-Oct-20 04:30N 36°01' E 014°51'1 1.0
2017-Oct-20 03:51N 36°01' E 014°50'0 0.1
2017-Oct-20 03:30N 36°01' E 014°50'1 0.1
2017-Oct-19 20:14N 36°02' E 014°49'0 0.2
2017-Oct-19 20:00N 36°02' E 014°49'0 0.2
2017-Oct-19 19:26N 36°02' E 014°49'0 0.2
2017-Oct-19 18:32N 36°02' E 014°49'0 0.2
2017-Oct-19 18:28N 36°02' E 014°49'0 0.2
2017-Oct-19 17:54N 36°02' E 014°49'2 3.7
2017-Oct-19 17:21N 36°03' E 014°47'410.8
2017-Oct-19 17:00N 36°04' E 014°42'612.7
2017-Oct-19 16:30N 36°07' E 014°35'612.8
2017-Oct-19 16:00N 36°09' E 014°28'612.9
2017-Oct-19 15:30N 36°11' E 014°20'612.7
2017-Oct-19 15:00N 36°14' E 014°13'612.8
2017-Oct-19 14:30N 36°17' E 014°06'612.8
2017-Oct-19 14:00N 36°19' E 013°59'612.8
2017-Oct-19 13:30N 36°22' E 013°52'612.8
2017-Oct-19 13:00N 36°24' E 013°44'612.6
2017-Oct-19 12:30N 36°27' E 013°37'28712.4
2017-Oct-18 13:23N 37°34' E 007°48'11912.3
2017-Oct-18 03:41N 37°27' E 005°18'212.2
2017-Oct-18 03:30N 37°27' E 005°15'712.2
2017-Oct-18 02:54N 37°26' E 005°06'612.2
2017-Oct-18 02:26N 37°26' E 004°59'512.3
2017-Oct-18 02:00N 37°25' E 004°52'612.2
2017-Oct-18 01:30N 37°25' E 004°45'612.2
2017-Oct-18 01:00N 37°24' E 004°37'612.2
2017-Oct-18 00:30N 37°24' E 004°29'612.4
2017-Oct-18 00:00N 37°23' E 004°22'612.5
2017-Oct-17 23:30N 37°23' E 004°14'5112.3
2017-Oct-17 19:23N 37°18' E 003°10'40912.5
2017-Oct-16 10:31N 36°03' W 005°11'112.7
2017-Oct-16 10:26N 36°03' W 005°12'4 9.0
2017-Oct-16 10:00N 36°02' W 005°17'4 8.0
2017-Oct-16 09:30N 35°59' W 005°21'612.0
2017-Oct-16 09:00N 35°58' W 005°28'9911.0
2017-Oct-15 23:59N 36°08' W 007°30'811.6
2017-Oct-15 23:19N 36°10' W 007°40'411.8
2017-Oct-15 23:00N 36°11' W 007°44'611.5
2017-Oct-15 22:30N 36°12' W 007°51'611.7
2017-Oct-15 21:59N 36°14' W 007°58'612.0
2017-Oct-15 21:30N 36°15' W 008°05'612.0
2017-Oct-15 21:00N 36°17' W 008°13'1611.9
2017-Oct-15 19:40N 36°21' W 008°32'211.6
2017-Oct-15 19:30N 36°21' W 008°34'712.0
2017-Oct-15 18:56N 36°23' W 008°42'512.2
2017-Oct-15 18:30N 36°24' W 008°49'612.6
2017-Oct-15 18:00N 36°25' W 008°56'612.8
2017-Oct-15 17:30N 36°27' W 009°04'612.4
2017-Oct-15 17:00N 36°28' W 009°11'612.3
2017-Oct-15 16:30N 36°30' W 009°19'611.8
2017-Oct-15 16:00N 36°34' W 009°24'612.2
2017-Oct-15 15:30N 36°38' W 009°30'611.8
2017-Oct-15 15:00N 36°42' W 009°35'1211.7
2017-Oct-15 14:00N 36°53' W 009°40'611.7
2017-Oct-15 13:30N 36°59' W 009°42'611.4
2017-Oct-15 13:00N 37°04' W 009°43'611.1
2017-Oct-15 12:30N 37°10' W 009°45'511.2
2017-Oct-15 12:00N 37°15' W 009°46'611.2
2017-Oct-15 11:30N 37°21' W 009°48'511.0
2017-Oct-15 11:00N 37°26' W 009°50'611.3
2017-Oct-15 10:30N 37°32' W 009°51'811.4
2017-Oct-15 09:50N 37°39' W 009°54'411.6
2017-Oct-15 09:27N 37°43' W 009°55'611.8
2017-Oct-15 08:59N 37°49' W 009°56'612.1
2017-Oct-15 08:30N 37°54' W 009°58'612.5
2017-Oct-15 08:00N 38°01' W 009°60'612.2
2017-Oct-15 07:30N 38°07' W 010°01'612.0
2017-Oct-15 07:00N 38°12' W 010°03'612.0
2017-Oct-15 06:30N 38°18' W 010°05'612.0
2017-Oct-15 06:00N 38°24' W 010°06'612.6
2017-Oct-15 05:30N 38°30' W 010°08'612.4
2017-Oct-15 05:00N 38°36' W 010°10'612.1
2017-Oct-15 04:30N 38°42' W 010°11'611.7
2017-Oct-15 04:00N 38°48' W 010°11'612.0
2017-Oct-15 03:30N 38°54' W 010°12'612.8
2017-Oct-15 03:00N 39°00' W 010°12'612.6
2017-Oct-15 02:30N 39°07' W 010°12'612.4
2017-Oct-15 02:00N 39°13' W 010°12'612.2
2017-Oct-15 01:30N 39°19' W 010°12'611.9
2017-Oct-15 01:01N 39°25' W 010°12'612.0
2017-Oct-15 00:30N 39°31' W 010°12'612.1
2017-Oct-15 00:00N 39°37' W 010°12'612.1
2017-Oct-14 23:30N 39°43' W 010°12'612.3
2017-Oct-14 23:01N 39°49' W 010°12'57411.9
2017-Oct-12 22:36N 48°52' W 005°49'311.2
2017-Oct-12 22:23N 48°54' W 005°47'510.6
2017-Oct-12 21:53N 48°57' W 005°40'1710.8
2017-Oct-12 20:21N 49°05' W 005°18'510.9
2017-Oct-12 19:52N 49°08' W 005°11'410.5
2017-Oct-12 19:30N 49°10' W 005°06'510.1
2017-Oct-12 19:00N 49°12' W 004°59'6 9.8
2017-Oct-12 18:25N 49°15' W 004°52'3 8.3
2017-Oct-12 18:00N 49°17' W 004°47'510.4
2017-Oct-12 17:29N 49°20' W 004°40'612.0
2017-Oct-12 17:00N 49°23' W 004°33'612.2
2017-Oct-12 16:29N 49°26' W 004°24'612.0
2017-Oct-12 16:00N 49°29' W 004°17'611.6
2017-Oct-12 15:30N 49°32' W 004°09'611.6
2017-Oct-12 14:59N 49°35' W 004°01'611.5
2017-Oct-12 14:30N 49°38' W 003°54'611.1
2017-Oct-12 13:58N 49°41' W 003°46'610.9
2017-Oct-12 13:24N 49°44' W 003°38'410.4
2017-Oct-12 13:00N 49°46' W 003°32'510.1
2017-Oct-12 12:30N 49°48' W 003°25'5 9.9
2017-Oct-12 12:00N 49°51' W 003°18'5 9.8
2017-Oct-12 11:30N 49°53' W 003°12'5 9.8
2017-Oct-12 11:00N 49°55' W 003°05'5 9.9
2017-Oct-12 10:30N 49°58' W 002°58'5 9.9
2017-Oct-12 10:00N 49°60' W 002°51'  

Dump ship's entire track history